Hohenlinden, Mississippi
Current Conditions -  °F | °C
As of 10:15 AM on Thursday 27 Nov 2014 (Local Time) from KSTF Reporting Station
Overcast Overcast  
Wind Chill: 36°   Ceiling: 2800
Heat Index: 41°   Visibility: NA
Dew Point: 32°   Wind: 7mph
Humidity: 70%   Direction: 330°NNW
Pressure: 30.48"   Gusts: NA
Location:  33.6711°N, 89.1329°W
Report Text: KSTF 271615Z AUTO 33006KT OVC028 05/00 A3048 RMK AO2 PWINO
Loading
Personal Weather Stations






























Interactive Weather Map New forecast layout! Learn more

10-Day Weather Forecast

Advertisements
Track Severe Weather on mobile